Time;durP1;ratioP1;P1;durP2;ratioP2;P2;SDS_P1;SDS_P2;PMS_P1;PMS_P2;Temp;Humidity;BMP_temperature;BMP_pressure;BME280_temperature;BME280_humidity;BME280_pressure;Samples;Min_cycle;Max_cycle;Signal;HPM_P1;HPM_P2
2023/12/27 00:02:13;;;;;;;9.43;1.90;;;;;;;6.38;71.73;102144.25;7393847;19;20022;-61
2023/12/27 00:04:41;;;;;;;8.85;1.80;;;;;;;6.30;71.68;102131.34;7396162;19;20014;-61
2023/12/27 00:07:09;;;;;;;11.05;1.60;;;;;;;6.21;72.21;102150.91;7394463;19;20014;-61
2023/12/27 00:09:37;;;;;;;13.00;1.85;;;;;;;6.30;72.05;102155.03;7392709;19;20246;-61
2023/12/27 00:12:05;;;;;;;10.82;1.90;;;;;;;6.27;72.01;102155.13;7394736;19;20388;-62
2023/12/27 00:14:33;;;;;;;5.85;1.80;;;;;;;6.16;72.42;102144.09;7393569;19;20356;-62
2023/12/27 00:17:01;;;;;;;9.55;1.65;;;;;;;6.29;72.26;102159.41;7395375;19;20440;-61
2023/12/27 00:19:29;;;;;;;7.22;1.70;;;;;;;6.35;72.04;102158.34;7392407;19;20344;-61
2023/12/27 00:21:57;;;;;;;9.75;1.90;;;;;;;6.34;71.81;102157.50;7394197;19;20134;-59
2023/12/27 00:24:25;;;;;;;8.05;1.60;;;;;;;6.27;72.15;102152.50;7395306;19;20015;-61
2023/12/27 00:26:52;;;;;;;9.75;1.90;;;;;;;6.32;72.10;102155.81;7393722;19;20358;-61
2023/12/27 00:29:20;;;;;;;10.25;1.73;;;;;;;6.30;72.47;102157.66;7393264;19;20052;-61
2023/12/27 00:31:48;;;;;;;10.45;1.88;;;;;;;6.23;72.46;102154.38;7394267;19;20484;-61
2023/12/27 00:34:17;;;;;;;11.70;1.83;;;;;;;6.29;72.38;102163.81;7392729;19;20127;-61
2023/12/27 00:36:45;;;;;;;7.47;1.55;;;;;;;6.33;72.26;102163.69;7393309;19;20421;-62
2023/12/27 00:39:13;;;;;;;8.52;1.75;;;;;;;6.27;72.30;102174.41;7392344;19;20043;-61
2023/12/27 00:41:41;;;;;;;13.13;2.13;;;;;;;6.23;72.71;102174.56;7393879;19;20363;-61
2023/12/27 00:44:09;;;;;;;11.55;1.98;;;;;;;6.22;72.74;102178.06;7392855;19;20014;-61
2023/12/27 00:46:37;;;;;;;13.70;2.00;;;;;;;6.22;72.81;102183.31;7395436;19;20350;-62
2023/12/27 00:49:05;;;;;;;11.98;1.75;;;;;;;6.19;72.78;102188.72;7392833;19;20019;-61
2023/12/27 00:51:33;;;;;;;12.65;1.98;;;;;;;6.22;72.52;102184.22;7394568;19;20018;-61
2023/12/27 00:54:01;;;;;;;14.73;2.42;;;;;;;6.26;72.47;102193.72;7394815;19;20022;-61
2023/12/27 00:56:29;;;;;;;10.40;1.70;;;;;;;6.34;72.19;102196.09;7394456;19;20010;-62
2023/12/27 00:58:58;;;;;;;10.65;2.67;;;;;;;6.28;72.15;102204.19;7392736;19;20552;-62
2023/12/27 01:01:26;;;;;;;12.52;2.15;;;;;;;6.26;72.32;102206.03;7392866;19;20378;-61
2023/12/27 01:03:54;;;;;;;8.30;2.28;;;;;;;6.17;72.73;102207.16;7394640;19;20131;-62
2023/12/27 01:06:22;;;;;;;13.80;1.90;;;;;;;6.13;72.59;102210.78;7394022;19;20081;-61
2023/12/27 01:08:50;;;;;;;11.20;2.00;;;;;;;6.17;72.97;102216.81;7392103;19;20022;-61
2023/12/27 01:11:18;;;;;;;10.75;1.88;;;;;;;6.25;72.45;102214.81;7391161;19;20376;-61
2023/12/27 01:13:45;;;;;;;9.35;2.03;;;;;;;6.34;72.11;102219.78;7394038;19;20019;-61
2023/12/27 01:16:15;;;;;;;10.38;2.08;;;;;;;6.31;72.36;102220.72;7393108;19;20022;-61
2023/12/27 01:18:43;;;;;;;14.80;2.22;;;;;;;6.26;72.41;102216.53;7391968;19;20018;-61
2023/12/27 01:21:13;;;;;;;5.38;1.58;;;;;;;6.36;72.16;102202.16;7393001;19;20039;-61
2023/12/27 01:23:41;;;;;;;10.30;1.98;;;;;;;6.35;72.11;102205.72;7393153;19;20479;-61
2023/12/27 01:26:09;;;;;;;11.68;1.90;;;;;;;6.25;71.99;102193.75;7393100;19;20040;-59
2023/12/27 01:28:37;;;;;;;13.70;2.10;;;;;;;6.24;72.31;102197.31;7392441;19;20201;-60
2023/12/27 01:31:05;;;;;;;9.07;1.80;;;;;;;6.16;72.56;102199.31;7393087;19;20356;-59
2023/12/27 01:33:33;;;;;;;10.05;2.00;;;;;;;6.13;72.93;102204.69;7392851;19;20035;-59
2023/12/27 01:36:08;;;;;;;12.07;1.85;;;;;;;6.23;72.58;102203.47;7393342;19;20094;-60
2023/12/27 01:38:36;;;;;;;9.23;1.70;;;;;;;6.15;72.42;102209.00;7391164;19;20487;-60
2023/12/27 01:41:04;;;;;;;7.88;1.70;;;;;;;6.13;72.54;102209.94;7392412;19;20031;-61
2023/12/27 01:43:31;;;;;;;9.23;1.45;;;;;;;6.08;72.92;102213.56;7388677;19;20051;-61
2023/12/27 01:45:59;;;;;;;11.45;2.05;;;;;;;6.09;72.59;102222.31;7392122;19;20018;-61
2023/12/27 01:48:29;;;;;;;9.15;1.80;;;;;;;6.13;72.82;102220.47;7390887;19;20532;-61
2023/12/27 01:51:00;;;;;;;13.02;2.20;;;;;;;6.07;72.88;102227.66;7391950;19;20014;-61
2023/12/27 01:53:30;;;;;;;11.48;1.58;;;;;;;6.02;72.69;102234.78;7391909;19;20014;-61
2023/12/27 01:55:58;;;;;;;9.82;1.75;;;;;;;6.01;73.10;102240.97;7390168;19;20026;-61
2023/12/27 01:58:27;;;;;;;11.48;1.95;;;;;;;5.89;73.42;102245.72;7391151;19;20500;-61
2023/12/27 02:00:56;;;;;;;11.07;2.00;;;;;;;5.87;73.06;102235.22;7391800;19;20071;-61
2023/12/27 02:03:24;;;;;;;11.70;1.70;;;;;;;5.96;73.13;102252.53;7389494;19;20032;-61
2023/12/27 02:05:56;;;;;;;10.32;2.17;;;;;;;5.95;73.28;102246.41;7391364;19;20025;-61
2023/12/27 02:08:25;;;;;;;10.73;1.80;;;;;;;5.98;72.79;102241.06;7390083;19;20480;-61
2023/12/27 02:10:53;;;;;;;12.27;1.92;;;;;;;6.04;72.81;102240.88;7391022;19;20018;-61
2023/12/27 02:13:21;;;;;;;9.63;1.83;;;;;;;6.13;72.47;102236.25;7388857;19;20030;-61
2023/12/27 02:15:51;;;;;;;7.80;1.88;;;;;;;6.11;72.65;102238.94;7390207;19;20035;-61
2023/12/27 02:18:19;;;;;;;10.98;2.17;;;;;;;6.12;72.80;102237.16;7390348;19;20085;-61
2023/12/27 02:20:47;;;;;;;10.45;1.85;;;;;;;6.22;72.31;102236.81;7390948;19;20022;-61
2023/12/27 02:23:18;;;;;;;12.40;2.10;;;;;;;6.17;72.49;102235.22;7387910;19;20010;-61
2023/12/27 02:25:48;;;;;;;11.68;2.35;;;;;;;6.18;72.72;102239.56;7391238;19;20083;-61
2023/12/27 02:28:16;;;;;;;14.50;2.20;;;;;;;6.07;72.74;102227.66;7388921;19;20034;-61
2023/12/27 02:30:44;;;;;;;8.43;1.63;;;;;;;6.12;72.86;102232.75;7390841;19;20027;-61
2023/12/27 02:33:12;;;;;;;11.65;1.90;;;;;;;6.03;73.02;102227.78;7390921;19;20022;-60
2023/12/27 02:35:40;;;;;;;12.23;1.77;;;;;;;6.08;72.98;102234.63;7390437;19;20029;-62
2023/12/27 02:38:08;;;;;;;10.73;1.88;;;;;;;6.08;72.95;102231.97;7389394;19;20022;-61
2023/12/27 02:40:35;;;;;;;9.43;1.73;;;;;;;6.15;72.97;102229.19;7389979;19;20015;-60
2023/12/27 02:43:03;;;;;;;8.85;1.65;;;;;;;6.14;72.73;102233.53;7389076;19;20278;-61
2023/12/27 02:45:31;;;;;;;10.52;2.25;;;;;;;6.10;72.88;102230.19;7390478;19;20022;-61
2023/12/27 02:47:59;;;;;;;10.20;1.92;;;;;;;6.18;72.71;102236.94;7392691;19;20015;-60
2023/12/27 02:50:28;;;;;;;8.65;1.73;;;;;;;6.12;72.86;102226.63;7386904;19;20538;-60
2023/12/27 02:52:56;;;;;;;10.55;1.65;;;;;;;6.11;72.93;102236.28;7390307;19;20043;-60
2023/12/27 02:55:24;;;;;;;11.50;1.65;;;;;;;6.14;73.06;102225.66;7389058;19;20040;-60
2023/12/27 02:57:51;;;;;;;9.10;2.00;;;;;;;6.22;72.38;102220.16;7389116;19;20039;-60
2023/12/27 03:00:20;;;;;;;11.52;2.20;;;;;;;6.27;72.43;102213.84;7387371;19;20478;-61
2023/12/27 03:02:47;;;;;;;12.25;1.90;;;;;;;6.05;72.53;102203.16;7387159;19;20026;-61
2023/12/27 03:05:15;;;;;;;7.70;1.88;;;;;;;6.19;72.78;102212.38;7388741;19;20014;-61
2023/12/27 03:07:43;;;;;;;11.93;2.40;;;;;;;6.17;72.50;102212.41;7388145;19;20050;-61
2023/12/27 03:10:11;;;;;;;8.70;1.60;;;;;;;6.24;72.46;102220.97;7386665;19;20015;-61
2023/12/27 03:12:39;;;;;;;9.27;2.33;;;;;;;6.15;72.44;102209.00;7389755;19;20022;-61
2023/12/27 03:15:07;;;;;;;11.02;1.80;;;;;;;6.09;72.63;102215.28;7390507;19;20039;-61
2023/12/27 03:17:35;;;;;;;9.95;1.80;;;;;;;5.95;73.27;102212.22;7390207;19;20342;-61
2023/12/27 03:20:03;;;;;;;9.48;1.80;;;;;;;5.95;73.19;102206.09;7387399;19;20026;-61
2023/12/27 03:22:31;;;;;;;9.93;1.95;;;;;;;5.95;73.15;102204.34;7388341;19;20014;-61
2023/12/27 03:24:59;;;;;;;8.43;1.55;;;;;;;5.86;73.38;102209.84;7388164;19;20015;-61
2023/12/27 03:27:26;;;;;;;11.60;1.95;;;;;;;5.80;73.66;102207.41;7388719;19;20014;-60
2023/12/27 03:29:54;;;;;;;9.35;1.83;;;;;;;5.80;73.82;102207.41;7386457;19;20018;-60
2023/12/27 03:32:25;;;;;;;11.90;1.95;;;;;;;5.84;73.67;102203.81;7388571;19;20026;-61
2023/12/27 03:34:53;;;;;;;11.07;2.00;;;;;;;5.78;73.75;102201.34;7388522;19;20047;-61
2023/12/27 03:37:22;;;;;;;9.70;1.80;;;;;;;5.77;73.83;102202.25;7386538;19;20018;-61
2023/12/27 03:39:51;;;;;;;8.05;1.75;;;;;;;5.77;73.45;102207.50;7385546;19;20018;-61
2023/12/27 03:42:19;;;;;;;11.68;2.15;;;;;;;5.77;73.45;102199.63;7361966;19;20015;-61
2023/12/27 03:44:52;;;;;;;9.38;1.70;;;;;;;5.71;73.62;102197.19;7388200;19;20034;-61
2023/12/27 03:47:20;;;;;;;14.55;2.25;;;;;;;5.66;74.11;102199.09;7388937;19;20029;-61
2023/12/27 03:49:48;;;;;;;9.00;2.13;;;;;;;5.65;74.02;102198.25;7385367;19;20103;-61
2023/12/27 03:52:16;;;;;;;12.77;2.08;;;;;;;5.68;73.74;102198.13;7387097;19;20014;-61
2023/12/27 03:54:44;;;;;;;10.35;1.95;;;;;;;5.67;73.82;102188.53;7386824;19;20019;-63
2023/12/27 03:57:12;;;;;;;9.63;2.17;;;;;;;5.68;73.60;102186.75;7387923;19;20017;-61
2023/12/27 03:59:40;;;;;;;11.65;2.00;;;;;;;5.56;73.87;102178.31;7386018;19;20040;-61
2023/12/27 04:02:08;;;;;;;8.55;2.05;;;;;;;5.43;74.40;102182.22;7387820;19;20059;-61
2023/12/27 04:04:38;;;;;;;11.77;2.10;;;;;;;5.31;74.70;102177.34;7388113;19;20014;-61
2023/12/27 04:07:06;;;;;;;10.73;2.30;;;;;;;5.21;75.42;102181.13;7388680;19;20018;-61
2023/12/27 04:09:38;;;;;;;9.27;1.88;;;;;;;5.33;75.07;102183.41;7386246;19;20080;-61
2023/12/27 04:12:07;;;;;;;10.93;1.77;;;;;;;5.25;75.33;102185.38;7388151;19;20010;-61
2023/12/27 04:14:35;;;;;;;11.50;2.42;;;;;;;5.11;75.95;102188.38;7386876;19;20023;-61
2023/12/27 04:17:03;;;;;;;7.70;2.00;;;;;;;5.22;75.66;102182.84;7387742;19;20442;-60
2023/12/27 04:19:31;;;;;;;8.43;2.03;;;;;;;5.18;75.50;102186.47;7385644;19;20014;-61
2023/12/27 04:21:59;;;;;;;13.48;2.45;;;;;;;5.28;75.23;102185.31;7387630;19;20122;-61
2023/12/27 04:24:27;;;;;;;14.35;2.80;;;;;;;5.37;74.74;102185.03;7385920;19;20026;-61
2023/12/27 04:26:55;;;;;;;12.30;2.50;;;;;;;5.43;74.77;102186.63;7387380;19;20014;-61
2023/12/27 04:29:23;;;;;;;15.07;2.10;;;;;;;5.46;74.47;102199.69;7383665;19;20018;-61
2023/12/27 04:31:51;;;;;;;9.80;2.20;;;;;;;5.45;74.49;102204.06;7386706;19;20451;-61
2023/12/27 04:34:19;;;;;;;11.75;2.10;;;;;;;5.38;74.60;102192.88;7388713;19;20364;-61
2023/12/27 04:36:47;;;;;;;8.13;1.95;;;;;;;5.30;74.32;102197.50;7390194;19;20010;-60
2023/12/27 04:39:16;;;;;;;10.73;2.17;;;;;;;5.29;75.06;102214.13;7392084;19;20021;-59
2023/12/27 04:41:44;;;;;;;12.30;2.17;;;;;;;5.27;75.23;102205.47;7394401;19;20439;-58
2023/12/27 04:44:11;;;;;;;9.45;1.90;;;;;;;5.33;75.23;102207.03;7392815;19;20011;-60
2023/12/27 04:46:39;;;;;;;12.50;2.50;;;;;;;5.27;75.00;102213.34;7394894;19;20122;-61
2023/12/27 04:49:09;;;;;;;12.02;2.42;;;;;;;5.07;75.80;102219.13;7391844;19;20022;-61
2023/12/27 04:51:37;;;;;;;12.35;1.92;;;;;;;5.06;76.38;102221.78;7393885;19;20358;-61
2023/12/27 04:54:05;;;;;;;9.65;2.15;;;;;;;5.08;76.00;102220.88;7392527;19;20015;-61
2023/12/27 04:56:33;;;;;;;8.10;2.30;;;;;;;4.97;76.24;102220.28;7393786;19;20122;-62
2023/12/27 04:59:01;;;;;;;7.03;1.88;;;;;;;4.99;76.60;102225.47;7391883;19;20342;-61
2023/12/27 05:01:29;;;;;;;11.02;2.17;;;;;;;4.97;76.47;102222.91;7393660;19;20018;-61
2023/12/27 05:03:57;;;;;;;10.85;2.13;;;;;;;4.98;76.87;102223.78;7392252;19;20082;-61
2023/12/27 05:06:25;;;;;;;11.40;2.30;;;;;;;5.11;76.32;102222.53;7393078;19;20042;-61
2023/12/27 05:08:53;;;;;;;11.73;2.33;;;;;;;5.04;75.83;102205.25;7391710;19;20039;-61
2023/12/27 05:11:21;;;;;;;10.40;2.25;;;;;;;4.97;76.76;102215.03;7393217;19;20082;-61
2023/12/27 05:13:50;;;;;;;10.82;2.33;;;;;;;4.85;76.77;102207.50;7392985;19;20021;-61
2023/12/27 05:16:18;;;;;;;11.40;2.40;;;;;;;4.89;76.70;102204.75;7393041;19;20044;-61
2023/12/27 05:18:45;;;;;;;9.82;2.05;;;;;;;4.80;77.13;102210.22;7391751;19;20026;-61
2023/12/27 05:21:17;;;;;;;10.60;2.10;;;;;;;4.78;77.08;102198.91;7393480;19;20019;-61
2023/12/27 05:23:45;;;;;;;10.90;2.35;;;;;;;4.80;77.27;102199.72;7392069;19;20014;-61
2023/12/27 05:26:12;;;;;;;12.02;2.35;;;;;;;4.76;77.35;102194.59;7391241;19;20026;-61
2023/12/27 05:28:40;;;;;;;9.95;2.30;;;;;;;4.64;77.80;102209.75;7391569;19;20094;-61
2023/12/27 05:31:08;;;;;;;10.77;2.08;;;;;;;4.67;77.93;102210.59;7392223;19;20074;-61
2023/12/27 05:33:36;;;;;;;10.23;2.20;;;;;;;4.58;78.44;102212.56;7393837;19;20094;-61
2023/12/27 05:36:05;;;;;;;8.48;2.22;;;;;;;4.76;77.78;102213.81;7391877;19;20018;-61
2023/12/27 05:38:33;;;;;;;10.45;2.30;;;;;;;4.82;77.68;102211.06;7391204;19;20019;-61
2023/12/27 05:41:01;;;;;;;11.25;2.15;;;;;;;4.84;77.18;102209.22;7390991;19;20022;-61
2023/12/27 05:43:29;;;;;;;11.60;2.40;;;;;;;4.92;77.37;102222.16;7389747;19;20026;-61
2023/12/27 05:45:57;;;;;;;11.55;2.00;;;;;;;4.92;77.46;102218.66;7391717;19;20018;-60
2023/12/27 05:48:25;;;;;;;9.27;2.33;;;;;;;4.96;77.15;102210.69;7390575;19;20030;-61
2023/12/27 05:50:53;;;;;;;11.77;2.53;;;;;;;4.99;77.61;102214.97;7391933;19;20460;-62
2023/12/27 05:53:21;;;;;;;9.68;2.35;;;;;;;5.03;77.39;102209.59;7391641;19;20204;-62
2023/12/27 05:55:49;;;;;;;14.02;2.58;;;;;;;4.98;77.43;102210.63;7391329;19;20022;-62
2023/12/27 05:58:17;;;;;;;10.25;3.13;;;;;;;4.94;77.58;102203.75;7389484;19;20022;-61
2023/12/27 06:00:45;;;;;;;12.27;3.33;;;;;;;5.02;77.70;102209.66;7389844;19;20027;-62
2023/12/27 06:03:12;;;;;;;10.70;3.30;;;;;;;4.98;77.39;102205.41;7390749;19;20018;-62
2023/12/27 06:05:40;;;;;;;11.43;3.75;;;;;;;4.91;77.86;102196.81;7389737;19;20040;-62
2023/12/27 06:08:09;;;;;;;12.77;3.45;;;;;;;4.88;78.19;102192.53;7390747;19;20035;-62
2023/12/27 06:10:37;;;;;;;17.35;4.03;;;;;;;4.85;78.10;102205.72;7391118;19;20075;-62
2023/12/27 06:13:05;;;;;;;13.25;3.20;;;;;;;4.77;78.76;102198.94;7391130;19;20021;-62
2023/12/27 06:15:33;;;;;;;11.63;3.22;;;;;;;4.76;78.69;102198.06;7390824;19;20652;-62
2023/12/27 06:18:01;;;;;;;14.52;3.60;;;;;;;4.76;78.42;102207.72;7391601;19;20024;-62
2023/12/27 06:20:29;;;;;;;8.93;2.85;;;;;;;4.71;78.67;102204.34;7387084;19;20018;-62
2023/12/27 06:22:57;;;;;;;9.07;2.78;;;;;;;4.72;78.56;102201.69;7390651;19;20018;-62
2023/12/27 06:25:25;;;;;;;10.85;2.90;;;;;;;4.79;78.23;102207.63;7390643;19;20029;-62
2023/12/27 06:27:54;;;;;;;13.48;2.90;;;;;;;4.76;78.57;102203.31;7390204;19;20521;-62
2023/12/27 06:30:22;;;;;;;13.68;2.75;;;;;;;4.72;78.63;102200.81;7386497;19;20019;-62
2023/12/27 06:32:50;;;;;;;12.75;3.13;;;;;;;4.78;78.64;102193.66;7390771;19;20031;-62
2023/12/27 06:35:18;;;;;;;7.97;2.45;;;;;;;4.91;77.94;102193.34;7389850;19;20022;-62
2023/12/27 06:37:46;;;;;;;10.52;2.55;;;;;;;4.84;78.07;102196.09;7391965;19;20337;-62
2023/12/27 06:40:14;;;;;;;10.93;2.92;;;;;;;4.89;78.39;102185.50;7387381;19;20493;-62
2023/12/27 06:42:42;;;;;;;11.15;2.63;;;;;;;4.92;77.97;102180.16;7390283;19;20018;-62
2023/12/27 06:45:10;;;;;;;11.18;2.60;;;;;;;4.88;78.42;102171.53;7389768;19;20359;-65
2023/12/27 06:47:38;;;;;;;12.30;2.60;;;;;;;5.08;77.47;102168.34;7390954;19;20011;-62
2023/12/27 06:50:06;;;;;;;9.52;2.40;;;;;;;5.05;77.24;102178.94;7388702;19;20022;-62
2023/12/27 06:52:34;;;;;;;9.85;2.70;;;;;;;4.69;78.63;102178.16;7389619;19;20475;-62
2023/12/27 06:55:03;;;;;;;12.43;2.70;;;;;;;4.72;78.55;102179.84;7388220;19;20039;-62
2023/12/27 06:57:30;;;;;;;9.10;2.40;;;;;;;4.43;79.50;102177.94;7390317;19;20011;-63
2023/12/27 06:59:58;;;;;;;13.27;2.75;;;;;;;4.45;80.09;102179.66;7386366;19;20022;-62
2023/12/27 07:02:27;;;;;;;10.45;3.25;;;;;;;4.53;79.88;102169.81;7389657;19;20014;-62
2023/12/27 07:04:54;;;;;;;10.95;2.70;;;;;;;4.69;79.28;102186.00;7388006;19;20014;-62
2023/12/27 07:07:22;;;;;;;13.15;2.50;;;;;;;4.75;78.89;102187.63;7389301;19;20035;-62
2023/12/27 07:09:50;;;;;;;11.40;2.70;;;;;;;4.79;78.92;102190.13;7387698;19;20336;-62
2023/12/27 07:12:18;;;;;;;8.52;3.10;;;;;;;4.86;78.67;102189.06;7387744;19;20034;-62
2023/12/27 07:14:46;;;;;;;10.48;3.08;;;;;;;4.85;78.12;102186.50;7387738;19;20358;-62
2023/12/27 07:17:14;;;;;;;12.43;3.08;;;;;;;4.77;78.67;102193.69;7388715;19;20031;-62
2023/12/27 07:19:42;;;;;;;12.68;2.55;;;;;;;4.76;78.91;102191.97;7387092;19;20018;-62
2023/12/27 07:22:10;;;;;;;11.93;2.83;;;;;;;4.78;78.80;102195.44;7389194;19;20033;-62
2023/12/27 07:24:38;;;;;;;9.63;2.83;;;;;;;4.80;78.65;102191.00;7387979;19;20155;-61
2023/12/27 07:27:06;;;;;;;13.10;3.17;;;;;;;4.87;78.56;102196.03;7389215;19;20019;-62
2023/12/27 07:29:36;;;;;;;14.60;4.13;;;;;;;4.98;78.60;102210.63;7385328;19;20055;-62
2023/12/27 07:32:05;;;;;;;12.32;3.20;;;;;;;5.06;78.46;102211.28;7388951;19;20042;-62
2023/12/27 07:34:33;;;;;;;13.00;2.53;;;;;;;5.17;78.07;102208.38;7386721;19;20496;-62
2023/12/27 07:37:01;;;;;;;9.45;2.55;;;;;;;5.24;78.00;102205.53;7388806;19;20142;-62
2023/12/27 07:39:29;;;;;;;14.27;2.92;;;;;;;5.28;77.88;102203.69;7382940;19;20015;-62
2023/12/27 07:41:57;;;;;;;9.90;2.78;;;;;;;5.30;77.76;102197.50;7388405;19;20047;-61
2023/12/27 07:44:26;;;;;;;10.55;2.75;;;;;;;5.17;78.51;102206.59;7388283;19;20512;-62
2023/12/27 07:46:55;;;;;;;12.68;2.65;;;;;;;5.22;77.93;102209.97;7387059;19;20039;-62
2023/12/27 07:49:24;;;;;;;9.30;2.63;;;;;;;5.25;77.96;102206.41;7387232;19;20025;-61
2023/12/27 07:51:52;;;;;;;10.32;2.97;;;;;;;5.11;78.31;102204.13;7388742;19;20018;-61
2023/12/27 07:54:20;;;;;;;12.80;2.95;;;;;;;5.23;78.16;102197.72;7388300;19;20029;-63
2023/12/27 07:56:48;;;;;;;11.63;2.55;;;;;;;5.29;77.91;102203.63;7387411;19;20022;-62
2023/12/27 07:59:17;;;;;;;11.45;2.17;;;;;;;5.20;78.06;102198.66;7387016;19;20044;-62
2023/12/27 08:01:45;;;;;;;13.07;2.80;;;;;;;5.09;78.45;102185.81;7387507;19;20014;-62
2023/12/27 08:04:13;;;;;;;12.77;2.78;;;;;;;5.16;78.62;102196.16;7387675;19;20049;-62
2023/12/27 08:06:41;;;;;;;16.00;3.17;;;;;;;5.19;78.24;102201.31;7388788;19;20082;-62
2023/12/27 08:09:11;;;;;;;13.18;2.95;;;;;;;5.06;78.51;102185.91;7386426;19;20483;-62
2023/12/27 08:11:39;;;;;;;10.07;2.40;;;;;;;5.16;78.77;102189.13;7389201;19;20029;-61
2023/12/27 08:14:07;;;;;;;10.20;2.67;;;;;;;5.20;78.27;102197.78;7393925;19;20018;-62
2023/12/27 08:16:35;;;;;;;10.70;2.65;;;;;;;4.96;79.27;102191.44;7394682;19;20471;-61
2023/12/27 08:19:03;;;;;;;12.07;2.83;;;;;;;5.12;78.89;102187.50;7391463;19;20018;-62
2023/12/27 08:21:31;;;;;;;12.30;2.88;;;;;;;5.29;77.88;102185.25;7394618;19;20369;-62
2023/12/27 08:23:59;;;;;;;10.27;2.78;;;;;;;4.98;78.88;102192.25;7392431;19;20014;-63
2023/12/27 08:26:27;;;;;;;11.65;3.00;;;;;;;4.91;79.57;102196.81;7393224;19;20022;-62
2023/12/27 08:28:55;;;;;;;8.80;2.90;;;;;;;4.94;79.38;102198.50;7392817;19;20438;-62
2023/12/27 08:31:23;;;;;;;12.38;3.28;;;;;;;5.09;78.91;102191.06;7394351;19;20022;-62
2023/12/27 08:33:51;;;;;;;9.85;2.75;;;;;;;5.12;79.28;102195.38;7394775;19;20078;-62
2023/12/27 08:36:19;;;;;;;9.05;2.58;;;;;;;5.22;78.85;102196.81;7393877;19;20023;-61
2023/12/27 08:38:47;;;;;;;15.35;3.13;;;;;;;5.47;78.01;102186.50;7392675;19;20019;-63
2023/12/27 08:41:14;;;;;;;12.77;2.67;;;;;;;5.43;77.69;102181.38;7394096;19;20020;-62
2023/12/27 08:43:42;;;;;;;10.43;3.10;;;;;;;5.36;78.16;102180.69;7393962;19;20029;-62
2023/12/27 08:46:14;;;;;;;12.63;2.42;;;;;;;5.37;78.52;102172.75;7393742;19;20471;-62
2023/12/27 08:48:42;;;;;;;8.93;2.55;;;;;;;5.63;77.77;102174.63;7391184;19;20352;-62
2023/12/27 08:51:10;;;;;;;27.52;10.00;;;;;;;5.76;77.22;102175.13;7391872;19;20377;-62
2023/12/27 08:53:40;;;;;;;14.73;4.95;;;;;;;5.93;76.63;102172.00;7394472;19;20015;-62
2023/12/27 08:56:08;;;;;;;52.58;28.75;;;;;;;5.94;76.02;102170.22;7394875;19;20670;-62
2023/12/27 08:58:36;;;;;;;42.75;32.33;;;;;;;5.71;76.80;102158.63;7392393;19;20043;-62
2023/12/27 09:01:04;;;;;;;30.92;22.80;;;;;;;5.88;76.61;102158.09;7394106;19;20022;-60
2023/12/27 09:03:33;;;;;;;22.30;14.18;;;;;;;5.96;76.29;102155.25;7394612;19;20029;-60
2023/12/27 09:06:01;;;;;;;12.90;4.65;;;;;;;5.97;75.92;102144.69;7391380;19;20032;-60
2023/12/27 09:08:29;;;;;;;16.52;6.95;;;;;;;5.93;75.96;102145.69;7392515;19;20018;-62
2023/12/27 09:10:57;;;;;;;14.90;6.68;;;;;;;5.95;76.53;102138.59;7393423;19;20011;-62
2023/12/27 09:13:25;;;;;;;14.52;6.70;;;;;;;6.04;75.98;102142.72;7393629;19;20034;-61
2023/12/27 09:15:53;;;;;;;8.80;3.65;;;;;;;6.08;75.94;102144.34;7393605;19;20018;-61
2023/12/27 09:18:21;;;;;;;12.40;3.38;;;;;;;6.14;75.76;102140.66;7392387;19;20037;-60
2023/12/27 09:20:48;;;;;;;10.02;3.15;;;;;;;6.18;75.59;102144.88;7393617;19;20348;-61
2023/12/27 09:23:16;;;;;;;13.05;3.25;;;;;;;6.18;75.84;102139.63;7392559;19;20329;-61
2023/12/27 09:25:44;;;;;;;13.48;3.40;;;;;;;6.18;75.50;102137.00;7391295;19;20025;-60
2023/12/27 09:28:12;;;;;;;11.30;2.85;;;;;;;6.22;75.49;102143.88;7391788;19;20741;-61
2023/12/27 09:30:40;;;;;;;10.18;2.65;;;;;;;6.23;75.55;102149.09;7391417;19;20025;-60
2023/12/27 09:33:08;;;;;;;10.05;2.83;;;;;;;6.25;75.62;102149.03;7393607;19;20031;-61
2023/12/27 09:35:36;;;;;;;13.18;5.40;;;;;;;6.32;75.85;102143.53;7392723;19;20014;-60
2023/12/27 09:38:04;;;;;;;13.93;4.97;;;;;;;6.44;75.14;102138.75;7392944;19;20078;-61
2023/12/27 09:40:32;;;;;;;16.30;6.20;;;;;;;6.40;75.20;102131.88;7391744;19;20495;-60
2023/12/27 09:43:03;;;;;;;10.95;3.80;;;;;;;6.43;75.66;102134.41;7392209;19;20019;-60
2023/12/27 09:45:36;;;;;;;15.88;3.65;;;;;;;6.35;75.70;102129.41;7391313;19;20151;-60
2023/12/27 09:48:06;;;;;;;11.15;3.55;;;;;;;6.46;75.54;102129.91;7392790;19;20030;-61
2023/12/27 09:50:35;;;;;;;15.15;3.65;;;;;;;6.46;75.51;102119.38;7392014;19;20022;-60
2023/12/27 09:53:04;;;;;;;11.43;3.25;;;;;;;6.55;75.30;102123.47;7392880;19;20018;-61
2023/12/27 09:55:32;;;;;;;9.93;3.08;;;;;;;6.52;75.29;102121.78;7392179;19;20026;-61
2023/12/27 09:58:01;;;;;;;12.10;3.35;;;;;;;6.51;75.67;102120.06;7392256;19;20023;-60
2023/12/27 10:00:33;;;;;;;8.25;2.83;;;;;;;6.52;75.66;102113.91;7388011;19;20026;-61
2023/12/27 10:03:04;;;;;;;10.50;3.20;;;;;;;6.56;75.73;102112.91;7392448;19;20022;-60
2023/12/27 10:05:58;;;;;;;13.93;3.40;;;;;;;6.65;75.24;102118.75;7390581;19;20476;-60
2023/12/27 10:08:27;;;;;;;9.60;3.03;;;;;;;6.55;75.78;102112.94;7391372;19;20503;-61
2023/12/27 10:10:54;;;;;;;11.77;3.10;;;;;;;6.54;75.57;102119.97;7391949;19;20034;-61
2023/12/27 10:13:22;;;;;;;11.38;2.67;;;;;;;6.56;75.49;102115.53;7392184;19;20024;-61
2023/12/27 10:15:50;;;;;;;12.25;4.53;;;;;;;6.56;75.91;102112.00;7390095;19;20496;-61
2023/12/27 10:18:18;;;;;;;14.50;6.15;;;;;;;6.66;75.52;102108.16;7390446;19;20018;-61
2023/12/27 10:20:48;;;;;;;11.13;4.13;;;;;;;6.71;75.28;102103.56;7390997;19;20378;-61
2023/12/27 10:23:16;;;;;;;10.63;5.53;;;;;;;6.76;75.35;102101.66;7391038;19;20096;-61
2023/12/27 10:25:44;;;;;;;11.75;4.30;;;;;;;6.68;75.43;102100.19;7389592;19;20039;-61
2023/12/27 10:28:12;;;;;;;14.85;4.25;;;;;;;6.80;75.20;102089.25;7391032;19;20043;-61
2023/12/27 10:30:40;;;;;;;17.60;7.88;;;;;;;6.80;75.32;102083.97;7390505;19;20381;-61
2023/12/27 10:33:08;;;;;;;12.70;4.53;;;;;;;6.86;74.70;102072.34;7391386;19;20051;-61
2023/12/27 10:35:40;;;;;;;11.55;3.70;;;;;;;6.84;74.91;102068.00;7389328;19;20011;-61
2023/12/27 10:38:08;;;;;;;13.23;2.80;;;;;;;6.87;74.91;102069.69;7390704;19;20026;-61
2023/12/27 10:40:39;;;;;;;13.13;3.25;;;;;;;6.63;75.62;102067.91;7390360;19;20366;-60
2023/12/27 10:43:10;;;;;;;12.38;2.40;;;;;;;6.78;75.40;102062.09;7391113;19;20018;-61
2023/12/27 10:45:38;;;;;;;13.27;3.03;;;;;;;6.93;74.84;102050.16;7392141;19;20014;-61
2023/12/27 10:48:09;;;;;;;9.85;2.90;;;;;;;6.89;74.91;102038.00;7390144;19;20030;-60
2023/12/27 10:50:38;;;;;;;9.55;2.67;;;;;;;6.88;75.07;102031.91;7389059;19;20178;-60
2023/12/27 10:53:07;;;;;;;11.35;2.80;;;;;;;6.91;74.74;102028.28;7390097;19;20010;-61
2023/12/27 10:55:36;;;;;;;9.93;2.60;;;;;;;6.95;74.85;102016.72;7389328;19;20328;-61
2023/12/27 10:58:18;;;;;;;10.93;2.67;;;;;;;7.02;74.33;102007.66;7389819;19;20022;-61
2023/12/27 11:00:46;;;;;;;10.85;2.58;;;;;;;6.98;74.48;101998.16;7389106;19;20028;-62
2023/12/27 11:03:16;;;;;;;13.02;2.63;;;;;;;6.98;74.34;101996.41;7389449;19;20601;-60
2023/12/27 11:05:44;;;;;;;10.23;2.35;;;;;;;6.98;74.40;101992.88;7388536;19;20011;-60
2023/12/27 11:08:13;;;;;;;13.02;3.05;;;;;;;7.05;74.41;101991.72;7387833;19;20069;-59
2023/12/27 11:10:44;;;;;;;9.43;2.33;;;;;;;7.07;74.23;101976.75;7387389;19;20332;-60
2023/12/27 11:13:15;;;;;;;9.02;2.38;;;;;;;7.15;73.94;101966.75;7387457;19;20010;-60
2023/12/27 11:15:45;;;;;;;9.90;2.25;;;;;;;7.19;73.86;101954.31;7389251;19;20043;-60
2023/12/27 11:18:13;;;;;;;8.00;2.45;;;;;;;7.10;73.81;101950.28;7389172;19;20029;-60
2023/12/27 11:20:45;;;;;;;8.13;2.30;;;;;;;7.17;73.48;101938.56;7390827;19;20038;-60
2023/12/27 11:23:13;;;;;;;8.85;2.20;;;;;;;7.19;73.57;101942.00;7389364;19;20025;-60
2023/12/27 11:25:40;;;;;;;9.07;2.08;;;;;;;7.29;73.38;101934.59;7388332;19;20032;-60
2023/12/27 11:28:08;;;;;;;10.23;2.25;;;;;;;7.31;73.02;101930.09;7388557;19;20010;-60
2023/12/27 11:30:36;;;;;;;9.82;2.67;;;;;;;7.34;73.03;101922.09;7388089;19;20379;-60
2023/12/27 11:33:05;;;;;;;9.30;2.22;;;;;;;7.40;73.04;101910.41;7388961;19;20019;-60